Latest Weather Observations for Richmond

IDN60901

Issued at 3:41 pm EST Tuesday 26 September 2017 (issued every 10 minutes, with the page automatically refreshed every 10 minutes)

About weather observations | Map of Sydney area stations | Latest observations for Sydney area | Other Formats
Station Details ID: 067105 Name: RICHMOND RAAF Lat: -33.60 Lon: 150.78 Height: 19.0 m
Data from the previous 72 hours. | See also: Recent months at Richmond
Date/Time
EST
Temp
°C
App
Temp
°C
Dew
Point
°C
Rel
Hum
%
Delta-T
°C
Wind Press
QNH
hPa
Press
MSL
hPa
Rain since
9am
mm
Dir  Spd
km/h
Gust
km/h
Spd
kts
Gust
kts
26/03:30pm 22.0 15.6 7.0 38 7.7 SE 30 39 16 21 1013.7 1013.7 0.0
26/03:00pm 23.5 17.2 4.0 28 9.6 SE 26 37 14 20 1013.4 1013.4 0.0
26/02:30pm 23.8 20.0 2.0 24 10.3 SE 11 22 6 12 1013.4 1013.4 0.0
26/02:00pm 24.0 20.5 3.3 26 10.1 SSE 11 26 6 14 1013.6 1013.6 0.0
26/01:30pm 23.2 20.3 2.7 26 9.8 N 7 17 4 9 1013.8 1013.8 0.0
26/01:00pm 22.5 18.4 2.1 26 9.6 SSE 13 22 7 12 1014.2 1014.2 0.0
26/12:30pm 22.5 19.3 3.1 28 9.3 SE 9 17 5 9 1014.5 1014.5 0.0
26/12:00pm 21.6 18.5 3.8 31 8.6 SSE 9 17 5 9 1014.9 1014.9 0.0
26/11:30am 21.4 18.2 3.1 30 8.7 ENE 9 17 5 9 1015.5 1015.5 0.0
26/11:00am 20.8 18.6 3.1 31 8.4 SE 4 7 2 4 1016.0 1016.0 0.0
26/10:30am 20.3 17.8 3.9 34 7.8 E 6 13 3 7 1016.4 1016.4 0.0
26/10:00am 19.3 15.3 3.1 34 7.6 E 13 20 7 11 1016.6 1016.6 0.0
26/09:30am 18.9 15.6 4.7 39 6.8 ESE 11 15 6 8 1016.8 1016.8 0.0
26/09:00am 17.3 14.4 4.9 44 5.9 SE 9 13 5 7 1016.8 1016.8 0.0
26/08:30am 16.3 14.7 6.2 51 4.9 SE 4 7 2 4 1016.7 1016.7 0.0
26/08:00am 14.5 12.8 6.1 57 4.0 E 4 9 2 5 1016.5 1016.5 0.0
26/07:30am 12.6 11.7 6.0 64 3.1 CALM 0 0 0 0 1016.3 1016.3 0.0
26/07:00am 10.1 9.3 6.3 77 1.8 CALM 0 0 0 0 1016.2 1016.2 0.0
26/06:30am 7.1 5.7 5.6 90 0.7 S 2 13 1 7 1015.9 1015.9 0.0
26/06:00am 5.4 4.1 4.1 91 0.5 CALM 0 0 0 0 1015.5 1015.5 0.0
26/05:30am 5.6 4.1 3.1 84 1.0 CALM 0 0 0 0 1015.2 1015.2 0.0
26/05:00am 5.8 4.5 4.0 88 0.8 CALM 0 0 0 0 1014.6 1014.6 0.0
26/04:30am 6.3 4.8 2.8 78 1.4 CALM 0 0 0 0 1014.2 1014.2 0.0
26/04:00am 7.2 5.8 3.8 79 1.5 CALM 0 2 0 1 1013.8 1013.8 0.0
26/03:30am 7.7 6.5 4.7 81 1.3 CALM 0 0 0 0 1013.6 1013.6 0.0
26/03:00am 8.6 7.0 4.4 75 1.8 WSW 2 6 1 3 1013.4 1013.4 0.0
26/02:30am 8.3 5.8 3.8 73 1.9 W 6 9 3 5 1013.3 1013.3 0.0
26/02:00am 9.0 7.2 3.2 67 2.5 SSW 2 9 1 5 1013.3 1013.3 0.0
26/01:30am 10.7 8.8 2.8 58 3.4 E 2 6 1 3 1013.2 1013.2 0.0
26/01:00am 12.1 8.1 3.1 54 4.0 NW 13 17 7 9 1013.3 1013.3 0.0
26/12:30am 13.4 9.4 2.9 49 4.7 NW 13 15 7 8 1013.3 1013.3 0.0
26/12:00am 14.2 10.2 3.1 47 5.0 NW 13 15 7 8 1013.5 1013.5 0.0
 
Date/Time
EST
Temp
°C
App
Temp
°C
Dew
Point
°C
Rel
Hum
%
Delta-T
°C
Wind Press
QNH
hPa
Press
MSL
hPa
Rain since
9am
mm
Dir  Spd
km/h
Gust
km/h
Spd
kts
Gust
kts
25/11:30pm 13.8 9.8 2.7 47 4.9 NW 13 15 7 8 1013.4 1013.4 0.0
25/11:00pm 13.8 10.5 2.4 46 5.0 NNW 9 11 5 6 1013.3 1013.3 0.0
25/10:30pm 14.7 11.8 2.6 44 5.4 NNW 7 11 4 6 1013.3 1013.3 0.0
25/10:00pm 14.5 11.7 3.0 46 5.2 NW 7 9 4 5 1013.3 1013.3 0.0
25/09:30pm 14.8 11.2 3.0 45 5.3 NNW 11 15 6 8 1013.2 1013.2 0.0
25/09:00pm 15.1 11.2 3.3 45 5.4 NNW 13 15 7 8 1012.8 1012.8 0.0
25/08:30pm 14.2 10.8 2.1 44 5.3 NW 9 9 5 5 1012.5 1012.5 0.0
25/08:00pm 15.9 12.6 2.3 40 6.1 NW 9 13 5 7 1012.2 1012.2 0.0
25/07:30pm 16.8 13.5 2.4 38 6.5 WNW 9 13 5 7 1012.0 1012.0 0.0
25/07:00pm 18.1 13.2 2.0 34 7.3 W 17 28 9 15 1011.4 1011.4 0.0
25/06:30pm 18.5 13.0 1.9 33 7.5 W 20 28 11 15 1011.1 1011.1 0.0
25/06:00pm 19.8 12.8 1.7 30 8.3 W 28 41 15 22 1010.2 1010.2 0.0
25/05:30pm 20.5 12.1 1.4 28 8.7 W 35 44 19 24 1009.5 1009.5 0.0
25/05:00pm 21.2 12.7 1.0 26 9.2 W 35 48 19 26 1009.0 1009.0 0.0
25/04:30pm 22.0 13.9 -0.1 23 9.9 W 32 48 17 26 1008.4 1008.4 0.0
25/04:00pm 22.8 13.3 -0.6 21 10.5 W 39 54 21 29 1007.8 1007.8 0.0
25/03:30pm 22.7 14.4 -0.1 22 10.3 W 33 50 18 27 1007.2 1007.2 0.0
25/03:00pm 23.1 12.8 0.2 22 10.5 W 44 61 24 33 1007.0 1007.0 0.0
25/02:33pm 23.7 14.6 -0.6 20 10.9 WSW 37 56 20 30 1006.5 1006.5 0.0
25/02:30pm 23.8 14.7 -0.5 20 11.0 WSW 37 50 20 27 1006.4 1006.4 0.0
25/02:00pm 24.3 13.4 -1.5 18 11.5 W 46 65 25 35 1005.9 1005.9 0.0
25/01:41pm 24.6 15.1 -0.5 19 11.4 W 39 57 21 31 1005.5 1005.5 0.0
25/01:30pm 24.6 16.0 0.2 20 11.2 W 35 48 19 26 1005.5 1005.5 0.0
25/01:04pm 25.1 16.3 -0.9 18 11.8 W 35 54 19 29 1005.6 1005.6 0.0
25/01:00pm 26.4 18.3 0.9 19 12.1 W 33 46 18 25 1005.5 1005.5 0.0
25/12:47pm 25.3 17.9 -0.7 18 11.8 W 28 63 15 34 1005.6 1005.6 0.0
25/12:30pm 26.3 18.3 1.6 20 11.8 W 33 46 18 25 1005.8 1005.8 0.0
25/12:00pm 25.3 15.3 0.8 20 11.5 WNW 43 61 23 33 1006.0 1006.0 0.0
25/11:52am 25.1 15.0 0.6 20 11.4 W 43 61 23 33 1006.1 1006.1 0.0
25/11:30am 25.5 17.2 2.2 22 11.2 W 35 50 19 27 1006.5 1006.5 0.0
25/11:00am 24.9 17.1 3.0 24 10.7 W 33 48 18 26 1006.7 1006.7 0.0
25/10:31am 24.6 17.5 1.5 22 10.9 W 28 46 15 25 1007.2 1007.2 0.0
25/10:30am 24.6 17.3 2.7 24 10.6 W 30 46 16 25 1007.2 1007.2 0.0
25/10:00am 23.5 15.6 1.2 23 10.4 WNW 32 43 17 23 1007.9 1007.9 0.0
25/09:30am 23.9 16.3 2.7 25 10.2 WNW 32 50 17 27 1008.1 1008.1 0.0
25/09:12am 22.8 15.8 1.8 25 9.8 WNW 28 50 15 27 1008.2 1008.2 0.0
25/09:00am 22.5 19.6 2.6 27 9.5 N 7 17 4 9 1008.4 1008.4 0.0
25/08:30am 21.7 18.7 1.9 27 9.2 NNE 7 11 4 6 1008.3 1008.3 0.0
25/08:00am 19.2 17.1 6.7 44 6.3 NNW 7 9 4 5 1008.0 1008.0 0.0
25/07:30am 17.0 15.7 5.9 48 5.4 N 2 6 1 3 1007.5 1007.5 0.0
25/07:00am 14.7 13.5 6.5 58 4.0 NNW 2 7 1 4 1007.1 1007.1 0.0
25/06:30am 11.3 9.7 6.2 71 2.4 NW 4 9 2 5 1006.9 1006.9 0.0
25/06:00am 10.1 7.4 5.5 73 2.1 NNW 9 13 5 7 1006.9 1006.9 0.0
25/05:30am 10.1 8.5 4.3 67 2.6 NW 2 7 1 4 1006.3 1006.3 0.0
25/05:00am 9.2 7.9 4.0 70 2.3 CALM 0 0 0 0 1006.1 1006.1 0.0
25/04:30am 9.7 8.3 3.4 65 2.7 CALM 0 0 0 0 1005.4 1005.4 0.0
25/04:00am 10.4 8.9 3.2 61 3.1 CALM 0 0 0 0 1005.2 1005.2 0.0
25/03:30am 12.6 11.3 4.1 56 3.8 CALM 0 0 0 0 1005.1 1005.1 0.0
25/03:00am 12.8 10.3 4.0 55 4.0 N 6 11 3 6 1004.9 1004.9 0.0
25/02:30am 13.5 11.0 3.6 51 4.5 N 6 9 3 5 1004.8 1004.8 0.0
25/02:00am 15.1 13.6 3.0 44 5.5 CALM 0 6 0 3 1004.4 1004.4 0.0
25/01:30am 16.8 14.6 3.5 41 6.1 NNW 4 13 2 7 1004.3 1004.3 0.0
25/01:00am 16.7 13.5 3.1 40 6.3 NNE 9 13 5 7 1004.5 1004.5 0.0
25/12:30am 17.8 13.9 3.3 38 6.7 NNE 13 20 7 11 1004.3 1004.3 0.0
25/12:00am 14.9 11.2 4.3 49 4.9 NE 13 17 7 9 1004.6 1004.6 0.0
 
Date/Time
EST
Temp
°C
App
Temp
°C
Dew
Point
°C
Rel
Hum
%
Delta-T
°C
Wind Press
QNH
hPa
Press
MSL
hPa
Rain since
9am
mm
Dir  Spd
km/h
Gust
km/h
Spd
kts
Gust
kts
24/11:30pm 16.1 13.1 4.2 45 5.5 ENE 9 11 5 6 1004.5 1004.5 0.0
24/11:00pm 14.5 11.6 4.5 51 4.7 E 9 11 5 6 1004.4 1004.4 0.0
24/10:30pm 15.8 13.4 4.5 47 5.3 ENE 6 9 3 5 1004.5 1004.5 0.0
24/10:00pm 16.0 14.6 3.4 43 5.8 CALM 0 0 0 0 1004.7 1004.7 0.0
24/09:30pm 17.2 15.8 3.8 41 6.3 CALM 0 0 0 0 1004.5 1004.5 0.0
24/09:00pm 18.9 16.6 2.7 34 7.5 SE 4 9 2 5 1004.6 1004.6 0.0
24/08:30pm 19.6 17.5 2.0 31 8.1 WNW 2 6 1 3 1004.6 1004.6 0.0
24/08:00pm 21.4 18.0 1.7 27 9.1 WNW 9 13 5 7 1004.4 1004.4 0.0
24/07:30pm 22.7 19.3 1.7 25 9.8 WNW 9 17 5 9 1004.0 1004.0 0.0
24/07:00pm 23.0 18.8 1.9 25 10.0 WNW 13 17 7 9 1003.7 1003.7 0.0
24/06:30pm 22.9 18.4 1.9 25 9.9 WNW 15 28 8 15 1003.3 1003.3 0.0
24/06:00pm 25.0 20.1 1.8 22 11.1 NW 17 22 9 12 1002.9 1002.9 0.0
24/05:30pm 25.4 20.9 2.2 22 11.2 WNW 15 20 8 11 1002.7 1002.7 0.0
24/05:00pm 26.6 20.7 1.8 20 12.0 WNW 22 32 12 17 1002.4 1002.4 0.0
24/04:30pm 27.1 20.0 1.5 19 12.3 WNW 28 41 15 22 1002.3 1002.3 0.0
24/04:00pm 27.9 22.2 2.9 20 12.4 WNW 22 30 12 16 1002.0 1002.0 0.0
24/03:32pm 28.0 20.4 3.0 20 12.4 WNW 32 50 17 27 1002.2 1002.2 0.0
24/03:30pm 28.0 20.1 2.2 19 12.6 WNW 33 50 18 27 1002.3 1002.3 0.0
24/03:22pm 28.4 21.4 1.8 18 13.0 WNW 28 50 15 27 1002.2 1002.2 0.0
24/03:00pm 28.0 20.1 2.2 19 12.7 W 33 43 18 23 1002.0 1002.0 0.0
24/02:30pm 29.2 20.6 2.5 18 13.2 WNW 37 54 20 29 1002.3 1002.3 0.0
24/02:21pm 29.0 21.2 3.1 19 13.0 NW 33 54 18 29 1002.4 1002.4 0.0
24/02:00pm 29.0 21.8 3.1 19 13.0 W 30 41 16 22 1002.4 1002.4 0.0
24/01:31pm 28.8 22.0 2.9 19 12.9 WNW 28 56 15 30 1002.4 1002.4 0.0
24/01:30pm 29.3 22.7 4.0 20 12.9 WNW 28 39 15 21 1002.5 1002.5 0.0
24/01:00pm 28.8 20.8 3.6 20 12.8 W 35 48 19 26 1002.5 1002.5 0.0
24/12:30pm 28.3 20.2 3.2 20 12.5 WNW 35 56 19 30 1002.9 1002.9 0.0
24/12:29pm 28.5 20.8 3.4 20 12.6 WNW 33 56 18 30 1002.9 1002.9 0.0
24/12:00pm 29.9 23.6 3.8 19 13.4 WNW 26 35 14 19 1003.2 1003.2 0.0
24/11:30am 28.4 21.0 4.0 21 12.4 W 32 41 17 22 1003.0 1003.0 0.0
24/11:00am 27.7 19.2 3.4 21 12.2 W 37 52 20 28 1003.2 1003.2 0.0
24/10:32am 27.6 20.3 2.6 20 12.3 W 30 50 16 27 1004.1 1004.1 0.0
24/10:30am 28.5 21.6 4.7 22 12.2 W 30 39 16 21 1003.9 1003.9 0.0
24/10:02am 27.3 19.3 3.7 22 11.8 WNW 35 54 19 29 1003.7 1003.7 0.0
24/10:00am 27.0 18.1 2.8 21 11.9 WNW 39 56 21 30 1004.0 1004.0 0.0
24/09:52am 26.8 17.1 2.7 21 11.8 W 43 56 23 30 1004.6 1004.6 0.0
24/09:30am 28.0 20.7 5.6 24 11.6 WSW 33 46 18 25 1004.0 1004.0 0.0
24/09:00am 28.3 23.5 7.5 27 11.2 WSW 22 32 12 17 1002.8 1002.8 0.0
24/08:30am 28.0 23.9 6.2 25 11.4 W 17 22 9 12 1002.1 1002.1 0.0
24/08:00am 27.7 23.2 5.9 25 11.4 W 19 28 10 15 1002.3 1002.3 0.0
24/07:30am 27.1 21.8 4.8 24 11.4 W 22 33 12 18 1001.9 1001.9 0.0
24/07:00am 27.3 21.9 4.4 23 11.7 WNW 22 33 12 18 1001.7 1001.7 0.0
24/06:30am 27.0 23.2 4.1 23 11.5 WSW 13 20 7 11 1001.0 1001.0 0.0
24/06:00am 27.5 23.2 3.2 21 12.1 NW 15 20 8 11 1000.4 1000.4 0.0
24/05:30am 29.1 22.7 3.1 19 13.0 NW 26 37 14 20 1000.0 1000.0 0.0
24/05:00am 25.1 20.4 3.1 24 10.8 NNW 17 33 9 18 999.6 999.6 0.0
24/04:30am 23.6 19.7 3.5 27 9.8 W 13 19 7 10 999.5 999.5 0.0
24/04:00am 26.1 22.4 2.1 21 11.6 N 11 15 6 8 998.6 998.6 0.0
24/03:30am 28.8 24.2 1.3 17 13.3 NW 15 20 8 11 999.0 999.0 0.0
24/03:00am 31.4 24.6 0.7 14 15.1 NW 26 39 14 21 998.7 998.7 0.0
24/02:30am 29.2 24.3 1.7 17 13.5 NW 17 24 9 13 998.7 998.7 0.0
24/02:00am 31.7 23.8 1.0 14 15.2 NW 32 43 17 23 998.3 998.3 0.0
24/01:30am 28.8 24.7 4.3 21 12.5 N 15 52 8 28 998.9 998.9 0.0
24/01:29am 28.5 25.2 4.7 22 12.2 N 11 52 6 28 999.0 999.0 0.0
24/01:00am 25.5 21.7 4.0 25 10.8 ENE 13 17 7 9 998.7 998.7 0.0
24/12:30am 28.9 25.6 2.2 18 13.2 N 9 19 5 10 999.1 999.1 0.0
24/12:00am 30.3 26.1 1.7 16 14.2 NW 13 20 7 11 999.5 999.5 0.0
 
Date/Time
EST
Temp
°C
App
Temp
°C
Dew
Point
°C
Rel
Hum
%
Delta-T
°C
Wind Press
QNH
hPa
Press
MSL
hPa
Rain since
9am
mm
Dir  Spd
km/h
Gust
km/h
Spd
kts
Gust
kts
23/11:30pm 31.0 25.6 2.3 16 14.4 NNW 20 28 11 15 998.9 998.9 0.0
23/11:00pm 29.0 23.7 3.1 19 13.0 NNE 20 32 11 17 1000.5 1000.5 0.0
23/10:30pm 26.2 22.4 4.1 24 11.1 N 13 26 7 14 1001.0 1001.0 0.0
23/10:00pm 23.8 20.0 3.7 27 9.9 N 13 15 7 8 1001.3 1001.3 0.0
23/09:30pm 23.5 20.7 3.4 27 9.7 NNE 7 9 4 5 1001.2 1001.2 0.0
23/09:00pm 25.2 21.6 3.2 24 10.8 NNE 11 15 6 8 1000.9 1000.9 0.0
23/08:30pm 25.9 22.0 3.2 23 11.2 N 13 17 7 9 1001.0 1001.0 0.0
23/08:00pm 27.1 23.0 2.2 20 12.2 NNE 13 17 7 9 1000.7 1000.7 0.0
23/07:30pm 27.4 23.6 1.8 19 12.4 N 11 17 6 9 1000.8 1000.8 0.0
23/07:00pm 28.7 24.8 1.3 17 13.3 N 11 17 6 9 1000.6 1000.6 0.0
23/06:30pm 28.6 26.3 0.3 16 13.5 NW 2 7 1 4 1000.9 1000.9 0.0
23/06:00pm 31.4 26.0 -1.4 12 15.5 NW 17 22 9 12 1000.9 1000.9 0.0
23/05:30pm 32.7 26.5 -0.4 12 16.0 NNW 22 33 12 18 1000.8 1000.8 0.0
23/05:00pm 33.3 28.1 0.1 12 16.3 NNW 17 26 9 14 1000.8 1000.8 0.0
23/04:30pm 34.9 28.0 -2.6 9 17.7 NW 24 37 13 20 1000.7 1000.7 0.0
23/04:00pm 35.3 27.7 -2.3 9 18.0 NNW 28 37 15 20 1000.5 1000.5 0.0

Latest Capital City Observations: Canberra | Sydney | Melbourne | Brisbane | Adelaide | Perth | Hobart | Darwin

Other Formats:

Comma delimited format used in spreadsheet applications
http://www.bom.gov.au/fwo/IDN60901/IDN60901.95753.axf

JavaScript Object Notation format (JSON) in row-major order
http://www.bom.gov.au/fwo/IDN60901/IDN60901.95753.json